sensor_id;sensor_type;location;lat;lon;timestamp;temperature;humidity
6581;DHT22;3324;50.796;7.228;2022-11-27T00:02:04;5.80;99.90
6581;DHT22;3324;50.796;7.228;2022-11-27T00:04:30;5.90;99.90
6581;DHT22;3324;50.796;7.228;2022-11-27T00:06:55;5.80;99.90
6581;DHT22;3324;50.796;7.228;2022-11-27T00:09:21;5.80;99.90
6581;DHT22;3324;50.796;7.228;2022-11-27T00:11:46;5.90;99.90
6581;DHT22;3324;50.796;7.228;2022-11-27T00:14:14;5.90;99.90
6581;DHT22;3324;50.796;7.228;2022-11-27T00:16:40;5.80;99.90
6581;DHT22;3324;50.796;7.228;2022-11-27T00:19:06;5.90;99.90
6581;DHT22;3324;50.796;7.228;2022-11-27T00:21:33;5.90;99.90
6581;DHT22;3324;50.796;7.228;2022-11-27T00:24:01;5.90;99.90
6581;DHT22;3324;50.796;7.228;2022-11-27T00:26:29;5.90;99.90
6581;DHT22;3324;50.796;7.228;2022-11-27T00:28:55;5.90;99.90
6581;DHT22;3324;50.796;7.228;2022-11-27T00:31:27;5.80;99.90
6581;DHT22;3324;50.796;7.228;2022-11-27T00:34:04;5.80;99.90
6581;DHT22;3324;50.796;7.228;2022-11-27T00:36:32;5.70;99.90
6581;DHT22;3324;50.796;7.228;2022-11-27T00:38:57;5.70;99.90
6581;DHT22;3324;50.796;7.228;2022-11-27T00:41:27;5.70;99.90
6581;DHT22;3324;50.796;7.228;2022-11-27T00:43:53;5.70;99.90
6581;DHT22;3324;50.796;7.228;2022-11-27T00:46:24;5.80;99.90
6581;DHT22;3324;50.796;7.228;2022-11-27T00:48:50;5.80;99.90
6581;DHT22;3324;50.796;7.228;2022-11-27T00:51:19;5.70;99.90
6581;DHT22;3324;50.796;7.228;2022-11-27T00:53:45;5.70;99.90
6581;DHT22;3324;50.796;7.228;2022-11-27T00:56:20;5.70;99.90
6581;DHT22;3324;50.796;7.228;2022-11-27T00:58:45;5.70;99.90
6581;DHT22;3324;50.796;7.228;2022-11-27T01:01:19;5.70;99.90
6581;DHT22;3324;50.796;7.228;2022-11-27T01:03:45;5.70;99.90
6581;DHT22;3324;50.796;7.228;2022-11-27T01:06:11;5.70;99.90
6581;DHT22;3324;50.796;7.228;2022-11-27T01:08:37;5.70;99.90
6581;DHT22;3324;50.796;7.228;2022-11-27T01:11:03;5.70;99.90
6581;DHT22;3324;50.796;7.228;2022-11-27T01:13:32;5.70;99.90
6581;DHT22;3324;50.796;7.228;2022-11-27T01:18:28;5.70;99.90
6581;DHT22;3324;50.796;7.228;2022-11-27T01:20:54;5.70;99.90
6581;DHT22;3324;50.796;7.228;2022-11-27T01:23:21;5.70;99.90
6581;DHT22;3324;50.796;7.228;2022-11-27T01:25:48;5.70;99.90
6581;DHT22;3324;50.796;7.228;2022-11-27T01:28:14;5.70;99.90
6581;DHT22;3324;50.796;7.228;2022-11-27T01:30:40;5.70;99.90
6581;DHT22;3324;50.796;7.228;2022-11-27T01:33:06;5.70;99.90
6581;DHT22;3324;50.796;7.228;2022-11-27T01:35:31;5.80;99.90
6581;DHT22;3324;50.796;7.228;2022-11-27T01:37:57;5.80;99.90
6581;DHT22;3324;50.796;7.228;2022-11-27T01:40:23;5.80;99.90
6581;DHT22;3324;50.796;7.228;2022-11-27T01:42:49;5.80;99.90
6581;DHT22;3324;50.796;7.228;2022-11-27T01:45:16;5.80;99.90
6581;DHT22;3324;50.796;7.228;2022-11-27T01:47:55;5.80;99.90
6581;DHT22;3324;50.796;7.228;2022-11-27T01:50:31;5.80;99.90
6581;DHT22;3324;50.796;7.228;2022-11-27T01:53:12;5.90;99.90
6581;DHT22;3324;50.796;7.228;2022-11-27T01:55:45;5.90;99.90
6581;DHT22;3324;50.796;7.228;2022-11-27T01:58:24;5.90;99.90
6581;DHT22;3324;50.796;7.228;2022-11-27T02:00:51;5.90;99.90
6581;DHT22;3324;50.796;7.228;2022-11-27T02:03:16;5.90;99.90
6581;DHT22;3324;50.796;7.228;2022-11-27T02:05:42;5.90;99.90
6581;DHT22;3324;50.796;7.228;2022-11-27T02:08:15;5.80;99.90
6581;DHT22;3324;50.796;7.228;2022-11-27T02:16:20;5.80;99.90
6581;DHT22;3324;50.796;7.228;2022-11-27T02:21:53;5.80;99.90
6581;DHT22;3324;50.796;7.228;2022-11-27T02:27:00;5.80;99.90
6581;DHT22;3324;50.796;7.228;2022-11-27T02:29:31;5.80;99.90
6581;DHT22;3324;50.796;7.228;2022-11-27T02:37:44;5.80;99.90
6581;DHT22;3324;50.796;7.228;2022-11-27T02:40:30;5.70;99.90
6581;DHT22;3324;50.796;7.228;2022-11-27T02:43:02;5.70;99.90
6581;DHT22;3324;50.796;7.228;2022-11-27T02:45:38;5.70;99.90
6581;DHT22;3324;50.796;7.228;2022-11-27T02:48:08;5.70;99.90
6581;DHT22;3324;50.796;7.228;2022-11-27T02:50:36;5.70;99.90
6581;DHT22;3324;50.796;7.228;2022-11-27T02:53:07;5.70;99.90
6581;DHT22;3324;50.796;7.228;2022-11-27T02:55:37;5.70;99.90
6581;DHT22;3324;50.796;7.228;2022-11-27T02:58:08;5.70;99.90
6581;DHT22;3324;50.796;7.228;2022-11-27T03:00:36;5.70;99.90
6581;DHT22;3324;50.796;7.228;2022-11-27T03:03:04;5.70;99.90
6581;DHT22;3324;50.796;7.228;2022-11-27T03:05:34;5.70;99.90
6581;DHT22;3324;50.796;7.228;2022-11-27T03:08:06;5.70;99.90
6581;DHT22;3324;50.796;7.228;2022-11-27T03:10:42;5.70;99.90
6581;DHT22;3324;50.796;7.228;2022-11-27T03:13:09;5.70;99.90
6581;DHT22;3324;50.796;7.228;2022-11-27T03:15:56;5.60;99.90
6581;DHT22;3324;50.796;7.228;2022-11-27T03:18:38;5.60;99.90
6581;DHT22;3324;50.796;7.228;2022-11-27T03:23:41;5.60;99.90
6581;DHT22;3324;50.796;7.228;2022-11-27T03:26:07;5.60;99.90
6581;DHT22;3324;50.796;7.228;2022-11-27T03:28:33;5.60;99.90
6581;DHT22;3324;50.796;7.228;2022-11-27T03:30:59;5.60;99.90
6581;DHT22;3324;50.796;7.228;2022-11-27T03:33:25;5.50;99.90
6581;DHT22;3324;50.796;7.228;2022-11-27T03:35:51;5.50;99.90
6581;DHT22;3324;50.796;7.228;2022-11-27T03:38:17;5.50;99.90
6581;DHT22;3324;50.796;7.228;2022-11-27T03:41:01;5.40;99.90
6581;DHT22;3324;50.796;7.228;2022-11-27T03:43:31;5.40;99.90
6581;DHT22;3324;50.796;7.228;2022-11-27T03:46:09;5.40;99.90
6581;DHT22;3324;50.796;7.228;2022-11-27T03:49:00;5.30;99.90
6581;DHT22;3324;50.796;7.228;2022-11-27T03:51:39;5.40;99.90
6581;DHT22;3324;50.796;7.228;2022-11-27T03:57:00;5.30;99.90
6581;DHT22;3324;50.796;7.228;2022-11-27T03:59:33;5.30;99.90
6581;DHT22;3324;50.796;7.228;2022-11-27T04:02:03;5.30;99.90
6581;DHT22;3324;50.796;7.228;2022-11-27T04:04:29;5.30;99.90
6581;DHT22;3324;50.796;7.228;2022-11-27T04:06:54;5.30;99.90
6581;DHT22;3324;50.796;7.228;2022-11-27T04:09:20;5.30;99.90
6581;DHT22;3324;50.796;7.228;2022-11-27T04:11:46;5.30;99.90
6581;DHT22;3324;50.796;7.228;2022-11-27T04:14:11;5.30;99.90
6581;DHT22;3324;50.796;7.228;2022-11-27T04:16:37;5.40;99.90
6581;DHT22;3324;50.796;7.228;2022-11-27T04:19:02;5.40;99.90
6581;DHT22;3324;50.796;7.228;2022-11-27T04:21:28;5.40;99.90
6581;DHT22;3324;50.796;7.228;2022-11-27T04:23:54;5.30;99.90
6581;DHT22;3324;50.796;7.228;2022-11-27T04:26:19;5.40;99.90
6581;DHT22;3324;50.796;7.228;2022-11-27T04:28:45;5.40;99.90
6581;DHT22;3324;50.796;7.228;2022-11-27T04:31:10;5.40;99.90
6581;DHT22;3324;50.796;7.228;2022-11-27T04:33:36;5.40;99.90
6581;DHT22;3324;50.796;7.228;2022-11-27T04:36:02;5.40;99.90
6581;DHT22;3324;50.796;7.228;2022-11-27T04:38:27;5.50;99.90
6581;DHT22;3324;50.796;7.228;2022-11-27T04:40:53;5.50;99.90
6581;DHT22;3324;50.796;7.228;2022-11-27T04:43:19;5.50;99.90
6581;DHT22;3324;50.796;7.228;2022-11-27T04:45:45;5.50;99.90
6581;DHT22;3324;50.796;7.228;2022-11-27T04:48:11;5.50;99.90
6581;DHT22;3324;50.796;7.228;2022-11-27T04:50:36;5.50;99.90
6581;DHT22;3324;50.796;7.228;2022-11-27T04:53:02;5.60;99.90
6581;DHT22;3324;50.796;7.228;2022-11-27T04:55:28;5.60;99.90
6581;DHT22;3324;50.796;7.228;2022-11-27T04:57:53;5.60;99.90
6581;DHT22;3324;50.796;7.228;2022-11-27T05:00:19;5.60;99.90
6581;DHT22;3324;50.796;7.228;2022-11-27T05:02:45;5.60;99.90
6581;DHT22;3324;50.796;7.228;2022-11-27T05:05:11;5.70;99.90
6581;DHT22;3324;50.796;7.228;2022-11-27T05:07:36;5.60;99.90
6581;DHT22;3324;50.796;7.228;2022-11-27T05:10:05;5.60;99.90
6581;DHT22;3324;50.796;7.228;2022-11-27T05:12:31;5.70;99.90
6581;DHT22;3324;50.796;7.228;2022-11-27T05:14:56;5.70;99.90
6581;DHT22;3324;50.796;7.228;2022-11-27T05:17:22;5.70;99.90
6581;DHT22;3324;50.796;7.228;2022-11-27T05:19:48;5.70;99.90
6581;DHT22;3324;50.796;7.228;2022-11-27T05:22:13;5.70;99.90
6581;DHT22;3324;50.796;7.228;2022-11-27T05:24:39;5.70;99.90
6581;DHT22;3324;50.796;7.228;2022-11-27T05:27:04;5.70;99.90
6581;DHT22;3324;50.796;7.228;2022-11-27T05:29:30;5.70;99.90
6581;DHT22;3324;50.796;7.228;2022-11-27T05:31:56;5.80;99.90
6581;DHT22;3324;50.796;7.228;2022-11-27T05:34:21;5.80;99.90
6581;DHT22;3324;50.796;7.228;2022-11-27T05:36:47;5.80;99.90
6581;DHT22;3324;50.796;7.228;2022-11-27T05:39:13;5.80;99.90
6581;DHT22;3324;50.796;7.228;2022-11-27T05:41:40;5.80;99.90
6581;DHT22;3324;50.796;7.228;2022-11-27T05:44:06;5.80;99.90
6581;DHT22;3324;50.796;7.228;2022-11-27T05:46:31;5.80;99.90
6581;DHT22;3324;50.796;7.228;2022-11-27T05:48:57;5.90;99.90
6581;DHT22;3324;50.796;7.228;2022-11-27T05:51:23;5.90;99.90
6581;DHT22;3324;50.796;7.228;2022-11-27T05:53:49;5.90;99.90
6581;DHT22;3324;50.796;7.228;2022-11-27T05:56:17;5.90;99.90
6581;DHT22;3324;50.796;7.228;2022-11-27T05:58:44;5.90;99.90
6581;DHT22;3324;50.796;7.228;2022-11-27T06:01:11;5.90;99.90
6581;DHT22;3324;50.796;7.228;2022-11-27T06:03:37;6.00;99.90
6581;DHT22;3324;50.796;7.228;2022-11-27T06:06:14;6.00;99.90
6581;DHT22;3324;50.796;7.228;2022-11-27T06:08:41;5.90;99.90
6581;DHT22;3324;50.796;7.228;2022-11-27T06:11:08;5.90;99.90
6581;DHT22;3324;50.796;7.228;2022-11-27T06:13:34;6.00;99.90
6581;DHT22;3324;50.796;7.228;2022-11-27T06:16:07;6.00;99.90
6581;DHT22;3324;50.796;7.228;2022-11-27T06:18:33;6.00;99.90
6581;DHT22;3324;50.796;7.228;2022-11-27T06:20:59;6.00;99.90
6581;DHT22;3324;50.796;7.228;2022-11-27T06:23:24;6.00;99.90
6581;DHT22;3324;50.796;7.228;2022-11-27T06:25:50;6.10;99.90
6581;DHT22;3324;50.796;7.228;2022-11-27T06:28:15;6.10;99.90
6581;DHT22;3324;50.796;7.228;2022-11-27T06:30:41;6.10;99.90
6581;DHT22;3324;50.796;7.228;2022-11-27T06:33:06;6.10;99.90
6581;DHT22;3324;50.796;7.228;2022-11-27T06:35:32;6.20;99.90
6581;DHT22;3324;50.796;7.228;2022-11-27T06:37:58;6.10;99.90
6581;DHT22;3324;50.796;7.228;2022-11-27T06:40:23;6.20;99.90
6581;DHT22;3324;50.796;7.228;2022-11-27T06:42:49;6.20;99.90
6581;DHT22;3324;50.796;7.228;2022-11-27T06:45:15;6.20;99.90
6581;DHT22;3324;50.796;7.228;2022-11-27T06:47:40;6.20;99.90
6581;DHT22;3324;50.796;7.228;2022-11-27T06:50:06;6.30;99.90
6581;DHT22;3324;50.796;7.228;2022-11-27T06:52:32;6.30;99.90
6581;DHT22;3324;50.796;7.228;2022-11-27T06:54:57;6.40;99.90
6581;DHT22;3324;50.796;7.228;2022-11-27T06:57:23;6.30;99.90
6581;DHT22;3324;50.796;7.228;2022-11-27T06:59:48;6.40;99.90
6581;DHT22;3324;50.796;7.228;2022-11-27T07:02:14;6.50;99.90
6581;DHT22;3324;50.796;7.228;2022-11-27T07:04:40;6.50;99.90
6581;DHT22;3324;50.796;7.228;2022-11-27T07:07:05;6.50;99.90
6581;DHT22;3324;50.796;7.228;2022-11-27T07:09:31;6.50;99.90
6581;DHT22;3324;50.796;7.228;2022-11-27T07:11:56;6.60;99.90
6581;DHT22;3324;50.796;7.228;2022-11-27T07:14:22;6.60;99.90
6581;DHT22;3324;50.796;7.228;2022-11-27T07:16:48;6.60;99.90
6581;DHT22;3324;50.796;7.228;2022-11-27T07:19:13;6.60;99.90
6581;DHT22;3324;50.796;7.228;2022-11-27T07:21:39;6.70;99.90
6581;DHT22;3324;50.796;7.228;2022-11-27T07:24:05;6.70;99.90
6581;DHT22;3324;50.796;7.228;2022-11-27T07:26:31;6.70;99.90
6581;DHT22;3324;50.796;7.228;2022-11-27T07:28:57;6.80;99.90
6581;DHT22;3324;50.796;7.228;2022-11-27T07:31:27;6.70;99.90
6581;DHT22;3324;50.796;7.228;2022-11-27T07:33:55;6.80;99.90
6581;DHT22;3324;50.796;7.228;2022-11-27T07:36:22;6.80;99.90
6581;DHT22;3324;50.796;7.228;2022-11-27T07:38:49;6.90;99.90
6581;DHT22;3324;50.796;7.228;2022-11-27T07:41:15;6.90;99.90
6581;DHT22;3324;50.796;7.228;2022-11-27T07:43:42;6.90;99.90
6581;DHT22;3324;50.796;7.228;2022-11-27T07:46:17;6.90;99.90
6581;DHT22;3324;50.796;7.228;2022-11-27T07:48:43;6.90;99.90
6581;DHT22;3324;50.796;7.228;2022-11-27T07:51:12;6.90;99.90
6581;DHT22;3324;50.796;7.228;2022-11-27T07:53:39;6.90;99.90
6581;DHT22;3324;50.796;7.228;2022-11-27T07:56:06;7.00;99.90
6581;DHT22;3324;50.796;7.228;2022-11-27T07:58:32;7.00;99.90
6581;DHT22;3324;50.796;7.228;2022-11-27T08:00:57;7.00;99.90
6581;DHT22;3324;50.796;7.228;2022-11-27T08:03:23;7.00;99.90
6581;DHT22;3324;50.796;7.228;2022-11-27T08:05:49;7.00;99.90
6581;DHT22;3324;50.796;7.228;2022-11-27T08:08:15;7.00;99.90
6581;DHT22;3324;50.796;7.228;2022-11-27T08:10:40;7.00;99.90
6581;DHT22;3324;50.796;7.228;2022-11-27T08:13:06;7.10;99.90
6581;DHT22;3324;50.796;7.228;2022-11-27T08:15:32;7.10;99.90
6581;DHT22;3324;50.796;7.228;2022-11-27T08:17:58;7.20;99.90
6581;DHT22;3324;50.796;7.228;2022-11-27T08:20:24;7.20;99.90
6581;DHT22;3324;50.796;7.228;2022-11-27T08:22:49;7.20;99.90
6581;DHT22;3324;50.796;7.228;2022-11-27T08:25:15;7.30;99.90
6581;DHT22;3324;50.796;7.228;2022-11-27T08:27:41;7.30;99.90
6581;DHT22;3324;50.796;7.228;2022-11-27T08:30:07;7.30;99.90
6581;DHT22;3324;50.796;7.228;2022-11-27T08:32:36;7.30;99.90
6581;DHT22;3324;50.796;7.228;2022-11-27T08:35:02;7.40;99.90
6581;DHT22;3324;50.796;7.228;2022-11-27T08:37:27;7.40;99.90
6581;DHT22;3324;50.796;7.228;2022-11-27T08:39:53;7.40;99.90
6581;DHT22;3324;50.796;7.228;2022-11-27T08:42:18;7.40;99.90
6581;DHT22;3324;50.796;7.228;2022-11-27T08:44:44;7.40;99.90
6581;DHT22;3324;50.796;7.228;2022-11-27T08:47:10;7.50;99.90
6581;DHT22;3324;50.796;7.228;2022-11-27T08:49:35;7.50;99.90
6581;DHT22;3324;50.796;7.228;2022-11-27T08:52:01;7.50;99.90
6581;DHT22;3324;50.796;7.228;2022-11-27T08:54:26;7.50;99.90
6581;DHT22;3324;50.796;7.228;2022-11-27T08:56:52;7.60;99.90
6581;DHT22;3324;50.796;7.228;2022-11-27T08:59:18;7.60;99.90
6581;DHT22;3324;50.796;7.228;2022-11-27T09:01:44;7.60;99.90
6581;DHT22;3324;50.796;7.228;2022-11-27T09:04:09;7.70;99.90
6581;DHT22;3324;50.796;7.228;2022-11-27T09:06:35;7.70;99.90
6581;DHT22;3324;50.796;7.228;2022-11-27T09:09:03;7.70;99.90
6581;DHT22;3324;50.796;7.228;2022-11-27T09:11:30;7.80;99.90
6581;DHT22;3324;50.796;7.228;2022-11-27T09:13:58;7.80;99.90
6581;DHT22;3324;50.796;7.228;2022-11-27T09:16:24;7.90;99.90
6581;DHT22;3324;50.796;7.228;2022-11-27T09:18:51;7.90;99.90
6581;DHT22;3324;50.796;7.228;2022-11-27T09:21:18;7.90;99.90
6581;DHT22;3324;50.796;7.228;2022-11-27T09:23:44;7.90;99.90
6581;DHT22;3324;50.796;7.228;2022-11-27T09:26:12;7.90;99.90
6581;DHT22;3324;50.796;7.228;2022-11-27T09:28:39;7.90;99.90
6581;DHT22;3324;50.796;7.228;2022-11-27T09:31:07;8.00;99.90
6581;DHT22;3324;50.796;7.228;2022-11-27T09:33:35;8.00;99.90
6581;DHT22;3324;50.796;7.228;2022-11-27T09:36:06;8.00;99.90
6581;DHT22;3324;50.796;7.228;2022-11-27T09:38:32;8.10;99.90
6581;DHT22;3324;50.796;7.228;2022-11-27T09:43:49;8.20;99.90
6581;DHT22;3324;50.796;7.228;2022-11-27T09:46:25;8.30;99.90
6581;DHT22;3324;50.796;7.228;2022-11-27T09:48:53;8.30;99.90
6581;DHT22;3324;50.796;7.228;2022-11-27T09:51:42;8.30;99.90
6581;DHT22;3324;50.796;7.228;2022-11-27T09:54:22;8.40;99.90
6581;DHT22;3324;50.796;7.228;2022-11-27T09:56:50;8.40;99.90
6581;DHT22;3324;50.796;7.228;2022-11-27T09:59:18;8.40;99.90
6581;DHT22;3324;50.796;7.228;2022-11-27T10:01:45;8.40;99.90
6581;DHT22;3324;50.796;7.228;2022-11-27T10:04:16;8.50;99.90
6581;DHT22;3324;50.796;7.228;2022-11-27T10:12:05;8.60;99.90
6581;DHT22;3324;50.796;7.228;2022-11-27T10:22:38;9.00;99.90
6581;DHT22;3324;50.796;7.228;2022-11-27T10:25:33;9.00;99.90
6581;DHT22;3324;50.796;7.228;2022-11-27T10:28:18;9.10;99.90
6581;DHT22;3324;50.796;7.228;2022-11-27T10:31:01;9.10;99.90
6581;DHT22;3324;50.796;7.228;2022-11-27T10:33:40;9.20;99.90
6581;DHT22;3324;50.796;7.228;2022-11-27T10:36:14;9.30;99.90
6581;DHT22;3324;50.796;7.228;2022-11-27T10:38:41;9.40;99.90
6581;DHT22;3324;50.796;7.228;2022-11-27T10:41:14;9.40;99.90
6581;DHT22;3324;50.796;7.228;2022-11-27T10:43:41;9.50;99.90
6581;DHT22;3324;50.796;7.228;2022-11-27T10:46:18;9.50;99.90
6581;DHT22;3324;50.796;7.228;2022-11-27T10:48:46;9.60;99.90
6581;DHT22;3324;50.796;7.228;2022-11-27T10:51:21;9.60;99.90
6581;DHT22;3324;50.796;7.228;2022-11-27T10:53:51;9.60;99.90
6581;DHT22;3324;50.796;7.228;2022-11-27T10:56:42;9.50;99.90
6581;DHT22;3324;50.796;7.228;2022-11-27T10:59:22;9.50;99.90
6581;DHT22;3324;50.796;7.228;2022-11-27T11:01:50;9.60;99.90
6581;DHT22;3324;50.796;7.228;2022-11-27T11:04:26;9.90;99.90
6581;DHT22;3324;50.796;7.228;2022-11-27T11:06:53;10.20;99.90
6581;DHT22;3324;50.796;7.228;2022-11-27T11:09:30;10.20;99.90
6581;DHT22;3324;50.796;7.228;2022-11-27T11:12:25;10.20;99.90
6581;DHT22;3324;50.796;7.228;2022-11-27T11:14:56;10.30;99.90
6581;DHT22;3324;50.796;7.228;2022-11-27T11:17:41;10.10;99.90
6581;DHT22;3324;50.796;7.228;2022-11-27T11:20:23;10.10;99.90
6581;DHT22;3324;50.796;7.228;2022-11-27T11:22:49;10.00;99.90
6581;DHT22;3324;50.796;7.228;2022-11-27T11:25:19;9.90;99.90
6581;DHT22;3324;50.796;7.228;2022-11-27T11:27:46;9.80;99.90
6581;DHT22;3324;50.796;7.228;2022-11-27T11:30:22;9.80;99.90
6581;DHT22;3324;50.796;7.228;2022-11-27T11:32:48;9.70;99.90
6581;DHT22;3324;50.796;7.228;2022-11-27T11:35:49;9.70;99.90
6581;DHT22;3324;50.796;7.228;2022-11-27T11:38:17;9.70;99.90
6581;DHT22;3324;50.796;7.228;2022-11-27T11:40:43;9.70;99.90
6581;DHT22;3324;50.796;7.228;2022-11-27T11:43:33;9.80;99.90
6581;DHT22;3324;50.796;7.228;2022-11-27T11:46:19;9.80;99.90
6581;DHT22;3324;50.796;7.228;2022-11-27T11:48:54;9.80;99.90
6581;DHT22;3324;50.796;7.228;2022-11-27T11:56:43;9.80;99.90
6581;DHT22;3324;50.796;7.228;2022-11-27T11:59:24;9.80;99.90
6581;DHT22;3324;50.796;7.228;2022-11-27T12:02:20;9.80;99.90
6581;DHT22;3324;50.796;7.228;2022-11-27T12:10:42;9.90;99.90
6581;DHT22;3324;50.796;7.228;2022-11-27T12:15:57;9.90;99.90
6581;DHT22;3324;50.796;7.228;2022-11-27T12:21:13;9.80;99.90
6581;DHT22;3324;50.796;7.228;2022-11-27T12:40:09;9.90;99.90
6581;DHT22;3324;50.796;7.228;2022-11-27T12:45:28;9.90;99.90
6581;DHT22;3324;50.796;7.228;2022-11-27T12:50:55;9.90;99.90
6581;DHT22;3324;50.796;7.228;2022-11-27T12:53:34;9.90;99.90
6581;DHT22;3324;50.796;7.228;2022-11-27T12:56:32;9.80;99.90
6581;DHT22;3324;50.796;7.228;2022-11-27T13:01:35;9.80;99.90
6581;DHT22;3324;50.796;7.228;2022-11-27T13:04:29;9.80;99.90
6581;DHT22;3324;50.796;7.228;2022-11-27T13:07:05;9.80;99.90
6581;DHT22;3324;50.796;7.228;2022-11-27T13:12:16;9.80;99.90
6581;DHT22;3324;50.796;7.228;2022-11-27T13:14:42;9.80;99.90
6581;DHT22;3324;50.796;7.228;2022-11-27T13:17:13;9.80;99.90
6581;DHT22;3324;50.796;7.228;2022-11-27T13:19:46;9.80;99.90
6581;DHT22;3324;50.796;7.228;2022-11-27T13:22:16;9.80;99.90
6581;DHT22;3324;50.796;7.228;2022-11-27T13:24:45;9.70;99.90
6581;DHT22;3324;50.796;7.228;2022-11-27T13:27:20;9.80;99.90
6581;DHT22;3324;50.796;7.228;2022-11-27T13:29:54;9.80;99.90
6581;DHT22;3324;50.796;7.228;2022-11-27T13:32:27;9.80;99.90
6581;DHT22;3324;50.796;7.228;2022-11-27T13:35:00;9.80;99.90
6581;DHT22;3324;50.796;7.228;2022-11-27T13:37:35;9.80;99.90
6581;DHT22;3324;50.796;7.228;2022-11-27T13:42:45;9.80;99.90
6581;DHT22;3324;50.796;7.228;2022-11-27T13:45:23;9.90;99.90
6581;DHT22;3324;50.796;7.228;2022-11-27T13:47:50;9.90;99.90
6581;DHT22;3324;50.796;7.228;2022-11-27T13:50:19;9.90;99.90
6581;DHT22;3324;50.796;7.228;2022-11-27T13:53:02;9.80;99.90
6581;DHT22;3324;50.796;7.228;2022-11-27T13:55:31;9.90;99.90
6581;DHT22;3324;50.796;7.228;2022-11-27T13:57:58;9.90;99.90
6581;DHT22;3324;50.796;7.228;2022-11-27T14:00:38;9.90;99.90
6581;DHT22;3324;50.796;7.228;2022-11-27T14:03:06;9.80;99.90
6581;DHT22;3324;50.796;7.228;2022-11-27T14:05:43;9.80;99.90
6581;DHT22;3324;50.796;7.228;2022-11-27T14:11:10;9.80;99.90
6581;DHT22;3324;50.796;7.228;2022-11-27T14:13:48;9.70;99.90
6581;DHT22;3324;50.796;7.228;2022-11-27T14:16:35;9.70;99.90
6581;DHT22;3324;50.796;7.228;2022-11-27T14:19:25;9.70;99.90
6581;DHT22;3324;50.796;7.228;2022-11-27T14:21:51;9.70;99.90
6581;DHT22;3324;50.796;7.228;2022-11-27T14:24:37;9.80;99.90
6581;DHT22;3324;50.796;7.228;2022-11-27T14:27:21;9.80;99.90
6581;DHT22;3324;50.796;7.228;2022-11-27T14:29:47;9.80;99.90
6581;DHT22;3324;50.796;7.228;2022-11-27T14:32:15;9.80;99.90
6581;DHT22;3324;50.796;7.228;2022-11-27T14:34:41;9.80;99.90
6581;DHT22;3324;50.796;7.228;2022-11-27T14:37:19;9.70;99.90
6581;DHT22;3324;50.796;7.228;2022-11-27T14:39:44;9.70;99.90
6581;DHT22;3324;50.796;7.228;2022-11-27T14:42:25;9.70;99.90
6581;DHT22;3324;50.796;7.228;2022-11-27T14:47:26;9.70;99.90
6581;DHT22;3324;50.796;7.228;2022-11-27T14:49:54;9.70;99.90
6581;DHT22;3324;50.796;7.228;2022-11-27T14:52:20;9.80;99.90
6581;DHT22;3324;50.796;7.228;2022-11-27T14:54:46;9.80;99.90
6581;DHT22;3324;50.796;7.228;2022-11-27T14:57:23;9.70;99.90
6581;DHT22;3324;50.796;7.228;2022-11-27T15:03:08;9.70;99.90
6581;DHT22;3324;50.796;7.228;2022-11-27T15:05:35;9.60;99.90
6581;DHT22;3324;50.796;7.228;2022-11-27T15:08:02;9.60;99.90
6581;DHT22;3324;50.796;7.228;2022-11-27T15:10:35;9.50;99.90
6581;DHT22;3324;50.796;7.228;2022-11-27T15:13:02;9.50;99.90
6581;DHT22;3324;50.796;7.228;2022-11-27T15:15:32;9.50;99.90
6581;DHT22;3324;50.796;7.228;2022-11-27T15:18:05;9.60;99.90
6581;DHT22;3324;50.796;7.228;2022-11-27T15:20:42;9.60;99.90
6581;DHT22;3324;50.796;7.228;2022-11-27T15:23:29;9.60;99.90
6581;DHT22;3324;50.796;7.228;2022-11-27T15:28:57;9.60;99.90
6581;DHT22;3324;50.796;7.228;2022-11-27T15:31:35;9.50;99.90
6581;DHT22;3324;50.796;7.228;2022-11-27T15:36:40;9.40;99.90
6581;DHT22;3324;50.796;7.228;2022-11-27T15:39:24;9.40;99.90
6581;DHT22;3324;50.796;7.228;2022-11-27T15:41:58;9.40;99.90
6581;DHT22;3324;50.796;7.228;2022-11-27T15:44:27;9.40;99.90
6581;DHT22;3324;50.796;7.228;2022-11-27T15:46:54;9.30;99.90
6581;DHT22;3324;50.796;7.228;2022-11-27T15:49:21;9.30;99.90
6581;DHT22;3324;50.796;7.228;2022-11-27T15:51:48;9.20;99.90
6581;DHT22;3324;50.796;7.228;2022-11-27T15:54:13;9.20;99.90
6581;DHT22;3324;50.796;7.228;2022-11-27T15:56:39;9.20;99.90
6581;DHT22;3324;50.796;7.228;2022-11-27T15:59:05;9.10;99.90
6581;DHT22;3324;50.796;7.228;2022-11-27T16:01:31;9.10;99.90
6581;DHT22;3324;50.796;7.228;2022-11-27T16:03:57;9.10;99.90
6581;DHT22;3324;50.796;7.228;2022-11-27T16:06:22;9.10;99.90
6581;DHT22;3324;50.796;7.228;2022-11-27T16:08:56;9.10;99.90
6581;DHT22;3324;50.796;7.228;2022-11-27T16:11:22;9.00;99.90
6581;DHT22;3324;50.796;7.228;2022-11-27T16:13:48;8.90;99.90
6581;DHT22;3324;50.796;7.228;2022-11-27T16:16:15;8.90;99.90
6581;DHT22;3324;50.796;7.228;2022-11-27T16:18:43;8.80;99.90
6581;DHT22;3324;50.796;7.228;2022-11-27T16:21:10;8.90;99.90
6581;DHT22;3324;50.796;7.228;2022-11-27T16:23:37;8.80;99.90
6581;DHT22;3324;50.796;7.228;2022-11-27T16:26:04;8.80;99.90
6581;DHT22;3324;50.796;7.228;2022-11-27T16:28:30;8.80;99.90
6581;DHT22;3324;50.796;7.228;2022-11-27T16:30:58;8.70;99.90
6581;DHT22;3324;50.796;7.228;2022-11-27T16:33:25;8.70;99.90
6581;DHT22;3324;50.796;7.228;2022-11-27T16:35:51;8.60;99.90
6581;DHT22;3324;50.796;7.228;2022-11-27T16:38:16;8.60;99.90
6581;DHT22;3324;50.796;7.228;2022-11-27T16:40:42;8.50;99.90
6581;DHT22;3324;50.796;7.228;2022-11-27T16:43:08;8.40;99.90
6581;DHT22;3324;50.796;7.228;2022-11-27T16:45:35;8.40;99.90
6581;DHT22;3324;50.796;7.228;2022-11-27T16:48:01;8.40;99.90
6581;DHT22;3324;50.796;7.228;2022-11-27T16:50:27;8.40;99.90
6581;DHT22;3324;50.796;7.228;2022-11-27T16:52:55;8.30;99.90
6581;DHT22;3324;50.796;7.228;2022-11-27T16:55:21;8.30;99.90
6581;DHT22;3324;50.796;7.228;2022-11-27T16:57:47;8.30;99.90
6581;DHT22;3324;50.796;7.228;2022-11-27T17:00:13;8.20;99.90
6581;DHT22;3324;50.796;7.228;2022-11-27T17:02:39;8.20;99.90
6581;DHT22;3324;50.796;7.228;2022-11-27T17:05:05;8.20;99.90
6581;DHT22;3324;50.796;7.228;2022-11-27T17:07:31;8.10;99.90
6581;DHT22;3324;50.796;7.228;2022-11-27T17:09:56;8.00;99.90
6581;DHT22;3324;50.796;7.228;2022-11-27T17:12:22;8.10;99.90
6581;DHT22;3324;50.796;7.228;2022-11-27T17:14:48;8.10;99.90
6581;DHT22;3324;50.796;7.228;2022-11-27T17:17:13;8.00;99.90
6581;DHT22;3324;50.796;7.228;2022-11-27T17:19:39;8.00;99.90
6581;DHT22;3324;50.796;7.228;2022-11-27T17:22:05;8.00;99.90
6581;DHT22;3324;50.796;7.228;2022-11-27T17:24:31;8.00;99.90
6581;DHT22;3324;50.796;7.228;2022-11-27T17:26:56;7.90;99.90
6581;DHT22;3324;50.796;7.228;2022-11-27T17:29:22;7.90;99.90
6581;DHT22;3324;50.796;7.228;2022-11-27T17:31:48;8.00;99.90
6581;DHT22;3324;50.796;7.228;2022-11-27T17:34:15;7.90;99.90
6581;DHT22;3324;50.796;7.228;2022-11-27T17:36:41;7.90;99.90
6581;DHT22;3324;50.796;7.228;2022-11-27T17:39:10;7.80;99.90
6581;DHT22;3324;50.796;7.228;2022-11-27T17:41:36;7.80;99.90
6581;DHT22;3324;50.796;7.228;2022-11-27T17:44:04;7.90;99.90
6581;DHT22;3324;50.796;7.228;2022-11-27T17:46:30;7.90;99.90
6581;DHT22;3324;50.796;7.228;2022-11-27T17:48:59;7.80;99.90
6581;DHT22;3324;50.796;7.228;2022-11-27T17:51:29;7.80;99.90
6581;DHT22;3324;50.796;7.228;2022-11-27T17:53:57;7.80;99.90
6581;DHT22;3324;50.796;7.228;2022-11-27T17:56:25;7.70;99.90
6581;DHT22;3324;50.796;7.228;2022-11-27T17:58:51;7.70;99.90
6581;DHT22;3324;50.796;7.228;2022-11-27T18:01:20;7.70;99.90
6581;DHT22;3324;50.796;7.228;2022-11-27T18:03:46;7.60;99.90
6581;DHT22;3324;50.796;7.228;2022-11-27T18:06:14;7.70;99.90
6581;DHT22;3324;50.796;7.228;2022-11-27T18:08:40;7.60;99.90
6581;DHT22;3324;50.796;7.228;2022-11-27T18:11:09;7.60;99.90
6581;DHT22;3324;50.796;7.228;2022-11-27T18:13:35;7.60;99.90